Terminal Aerodrome Forecast
Issued by NWS

Home | Current Version | Previous Version | Text Only | Print | Product List | Glossary On
Versions: 1 2 3 4 5 6 7 8 9 10 11 12 13 14 15 16 17 18 19
000
FTUS46 KHNX 241123
TAFBFL
TAF
KBFL 241123Z 2412/2512 00000KT P6SM SKC
      TEMPO 2414/2416 4SM BR
     FM242000 VRB03KT P6SM SKC=

USA.gov is the U.S. government's official web portal to all federal, state and local government web resources and services.